Flight Track Log - Related Links

Times and Time Zones

All times are in EDT time to prevent confusion due to time zone crossing. See the VH-ZCS flight status page for this flight to view local times or setup timezone preferences in your user account.

Time Position Orientation Groundspeed Altitude Reporting Facility
EDT Latitude Longitude Course Direction KTS MPH feet Rate Location/Type
Fri 11:44:01 PM -33.9170 150.9794 300° West 80 92 500  Level Aus ATC (RADAR)
Fri 11:44:36 PM -33.9107 150.9660 300° West 76 87 1,300 1,286 Climbing Aus ATC (RADAR)
Fri 11:45:11 PM -33.9030 150.9538 307° West 73 84 2,000 947 Climbing Aus ATC (RADAR)
Fri 11:46:11 PM -33.8888 150.9319 308° West 84 97 2,800 988 Climbing Aus ATC (RADAR)
Fri 11:46:36 PM -33.8818 150.9196 304° West 98 113 3,400 1,100 Climbing Aus ATC (RADAR)
Fri 11:47:11 PM -33.8731 150.9038 304° West 93 107 3,900 450 Climbing Aus ATC (RADAR)
Fri 11:47:56 PM -33.8885 150.8784 234° Southwest 123 142 4,000 76 Climbing Aus ATC (RADAR)
Fri 11:48:30 PM -33.9027 150.8537 235° Southwest 149 171 4,000 64 Level Aus ATC (RADAR)
Fri 11:49:30 PM -33.9250 150.8145 236° Southwest 133 153 4,100 160 Climbing Aus ATC (RADAR)
Fri 11:49:45 PM -33.9304 150.8046 236° Southwest 135 155 4,200 1,333 Climbing Aus ATC (RADAR)
Fri 11:50:15 PM -33.9408 150.7885 232° Southwest 118 136 5,100 533 Climbing Aus ATC (RADAR)
Fri 11:51:15 PM -33.9614 150.7540 234° Southwest 126 145 5,000 -71 Descending Aus ATC (RADAR)
Fri 11:51:40 PM -33.9702 150.7380 236° Southwest 132 152 5,000 100 Level Aus ATC (RADAR)
Fri 11:52:15 PM -33.9917 150.7281 201° Southwest 156 180 5,100  Climbing Aus ATC (RADAR)
Fri 11:53:00 PM -34.0256 150.7247 185° South 163 188 5,000 -75 Descending Aus ATC (RADAR)
Fri 11:53:35 PM -34.0520 150.7244 181° South 164 189 5,000  Level Aus ATC (RADAR)
Fri 11:54:10 PM -34.0787 150.7268 176° South 165 190 5,000 86 Level Aus ATC (RADAR)
Fri 11:54:45 PM -34.1036 150.7276 179° South 154 177 5,100  Climbing Aus ATC (RADAR)
Fri 11:55:20 PM -34.1284 150.7267 182° South 153 176 5,000 -58 Descending Aus ATC (RADAR)
Fri 11:56:29 PM -34.1754 150.7305 176° South 144 166 5,000  Level Aus ATC (RADAR)
Fri 11:56:55 PM -34.1924 150.7318 176° South 147 169 5,000 700 Level Aus ATC (RADAR)
Fri 11:57:29 PM -34.2153 150.7320 180° South 140 161 5,700 1,139 Climbing Aus ATC (RADAR)
Fri 11:58:14 PM -34.2436 150.7364 173° South 136 157 6,500 1,200 Climbing Aus ATC (RADAR)
Fri 11:58:49 PM -34.2534 150.7224 230° Southwest 92 106 7,300 1,500 Climbing Aus ATC (RADAR)
Fri 11:59:34 PM -34.2654 150.7058 229° Southwest 84 97 8,500 1,543 Climbing Aus ATC (RADAR)
Fri 11:59:59 PM -34.2719 150.6964 230° Southwest 84 97 9,100 1,200 Climbing Aus ATC (RADAR)
Sat 12:00:39 AM -34.2822 150.6812 231° Southwest 85 98 9,800 667 Climbing Aus ATC (RADAR)
Sat 12:01:29 AM -34.2972 150.6584 232° Southwest 109 125 10,100 160 Climbing Aus ATC (RADAR)
Sat 12:01:54 AM -34.3079 150.6429 230° Southwest 135 155 10,000 -100 Descending Aus ATC (RADAR)
Sat 12:02:29 AM -34.3228 150.6219 229° Southwest 138 159 10,000  Level Aus ATC (RADAR)
Sat 12:03:14 AM -34.3408 150.5958 230° Southwest 132 152 10,000  Level Aus ATC (RADAR)
Sat 12:03:49 AM -34.3541 150.5764 230° Southwest 127 146 10,000  Level Aus ATC (RADAR)
Sat 12:04:19 AM -34.3655 150.5598 230° Southwest 126 145 10,000  Level Aus ATC (RADAR)
Sat 12:04:54 AM -34.3784 150.5402 232° Southwest 126 145 10,000  Level Aus ATC (RADAR)
Sat 12:05:29 AM -34.3917 150.5210 230° Southwest 126 145 10,000  Level Aus ATC (RADAR)
Sat 12:06:28 AM -34.4137 150.4889 230° Southwest 119 137 10,000  Level Aus ATC (RADAR)
Sat 12:06:54 AM -34.4226 150.4758 231° Southwest 119 137 10,000  Level Aus ATC (RADAR)
Sat 12:07:28 AM -34.4354 150.4565 231° Southwest 124 143 10,000 76 Level Aus ATC (RADAR)
Sat 12:08:13 AM -34.4518 150.4330 230° Southwest 119 137 10,100 675 Climbing Aus ATC (RADAR)
Sat 12:08:48 AM -34.4618 150.4193 228° Southwest 93 107 10,900 1,114 Climbing Aus ATC (RADAR)
Sat 12:09:23 AM -34.4711 150.4049 232° Southwest 90 104 11,400 857 Climbing Aus ATC (RADAR)
Sat 12:09:58 AM -34.4800 150.3921 230° Southwest 83 96 11,900 857 Climbing Aus ATC (RADAR)
Sat 12:10:33 AM -34.4888 150.3785 232° Southwest 85 98 12,400 960 Climbing Aus ATC (RADAR)
Sat 12:11:38 AM -34.5058 150.3535 230° Southwest 88 101 13,500 933 Climbing Aus ATC (RADAR)
Sat 12:12:03 AM -34.5128 150.3437 229° Southwest 89 102 13,800 900 Climbing Aus ATC (RADAR)
Sat 12:12:38 AM -34.5217 150.3308 230° Southwest 83 96 14,400 1,050 Climbing Aus ATC (RADAR)
Sat 12:13:23 AM -34.5326 150.3143 231° Southwest 81 93 15,200 1,050 Climbing Aus ATC (RADAR)
Sat 12:13:58 AM -34.5411 150.3020 230° Southwest 80 92 15,800 450 Climbing Aus ATC (RADAR)
Sat 12:14:43 AM -34.5541 150.2811 233° Southwest 108 124 15,800  Level Aus ATC (RADAR)
Sat 12:15:08 AM -34.5637 150.2677 229° Southwest 120 138 15,800  Level Aus ATC (RADAR)
Sat 12:15:43 AM -34.5773 150.2474 231° Southwest 130 150 15,800  Level Aus ATC (RADAR)
Sat 12:16:47 AM -34.6020 150.2121 230° Southwest 124 143 15,800  Level Aus ATC (RADAR)
Sat 12:17:02 AM -34.6077 150.2041 229° Southwest 124 143 15,800  Level Aus ATC (RADAR)
Sat 12:17:37 AM -34.6206 150.1842 232° Southwest 127 146 15,800  Level Aus ATC (RADAR)
Sat 12:18:22 AM -34.6380 150.1586 230° Southwest 129 148 15,800  Level Aus ATC (RADAR)
Sat 12:18:57 AM -34.6515 150.1388 230° Southwest 129 148 15,800  Level Aus ATC (RADAR)
Sat 12:19:27 AM -34.6631 150.1210 232° Southwest 132 152 15,800  Level Aus ATC (RADAR)
Sat 12:20:02 AM -34.6770 150.1010 230° Southwest 131 151 15,800  Level Aus ATC (RADAR)
Sat 12:20:37 AM -34.6906 150.0810 230° Southwest 131 151 15,800  Level Aus ATC (RADAR)
Sat 12:21:22 AM -34.7079 150.0549 231° Southwest 130 150 15,800  Level Aus ATC (RADAR)
Sat 12:21:57 AM -34.7215 150.0351 230° Southwest 129 148 15,800  Level Aus ATC (RADAR)
Sat 12:22:32 AM -34.7348 150.0154 231° Southwest 128 147 15,800  Level Aus ATC (RADAR)
Sat 12:23:07 AM -34.7480 149.9959 231° Southwest 127 146 15,800  Level Aus ATC (RADAR)
Sat 12:23:37 AM -34.7595 149.9785 231° Southwest 129 148 15,800  Level Aus ATC (RADAR)
Sat 12:24:12 AM -34.7728 149.9594 230° Southwest 126 145 15,800  Level Aus ATC (RADAR)
Sat 12:24:47 AM -34.7855 149.9402 231° Southwest 123 142 15,800  Level Aus ATC (RADAR)
Sat 12:25:22 AM -34.7983 149.9208 231° Southwest 124 143 15,800  Level Aus ATC (RADAR)
Sat 12:25:57 AM -34.8112 149.9017 231° Southwest 124 143 15,800  Level Aus ATC (RADAR)
Sat 12:26:47 AM -34.8291 149.8754 230° Southwest 120 138 15,800  Level Aus ATC (RADAR)
Sat 12:27:12 AM -34.8379 149.8620 231° Southwest 120 138 15,800  Level Aus ATC (RADAR)
Sat 12:27:47 AM -34.8503 149.8435 231° Southwest 120 138 15,800  Level Aus ATC (RADAR)
Sat 12:28:27 AM -34.8651 149.8219 230° Southwest 122 140 15,800  Level Aus ATC (RADAR)
Sat 12:29:01 AM -34.8787 149.8018 230° Southwest 128 147 15,800  Level Aus ATC (RADAR)
Sat 12:29:36 AM -34.8916 149.7813 232° Southwest 129 148 15,800 86 Level Aus ATC (RADAR)
Sat 12:30:11 AM -34.9056 149.7608 230° Southwest 132 152 15,900 86 Climbing Aus ATC (RADAR)
Sat 12:30:46 AM -34.9199 149.7393 231° Southwest 138 159 15,900  Level Aus ATC (RADAR)
Sat 12:31:46 AM -34.9447 149.7026 230° Southwest 139 160 15,900  Level Aus ATC (RADAR)
Sat 12:32:06 AM -34.9528 149.6904 231° Southwest 138 159 15,900  Level Aus ATC (RADAR)
Sat 12:32:31 AM -34.9629 149.6750 231° Southwest 138 159 15,900  Level Aus ATC (RADAR)
Sat 12:33:06 AM -34.9770 149.6541 231° Southwest 136 157 15,900  Level Aus ATC (RADAR)
Sat 12:33:51 AM -34.9944 149.6279 231° Southwest 131 151 15,900  Level Aus ATC (RADAR)
Sat 12:34:26 AM -35.0079 149.6080 230° Southwest 130 150 15,900  Level Aus ATC (RADAR)
Sat 12:34:56 AM -35.0192 149.5908 231° Southwest 129 148 15,900  Level Aus ATC (RADAR)
Sat 12:35:36 AM -35.0341 149.5683 231° Southwest 127 146 15,900  Level Aus ATC (RADAR)
Sat 12:36:11 AM -35.0473 149.5489 230° Southwest 127 146 15,900  Level Aus ATC (RADAR)
Sat 12:37:01 AM -35.0654 149.5210 232° Southwest 125 144 15,900  Level Aus ATC (RADAR)
Sat 12:37:30 AM -35.0767 149.5043 231° Southwest 126 145 15,900  Level Aus ATC (RADAR)
Sat 12:38:05 AM -35.0900 149.4841 231° Southwest 128 147 15,900  Level Aus ATC (RADAR)
Sat 12:38:45 AM -35.1056 149.4608 231° Southwest 132 152 15,900  Level Aus ATC (RADAR)
Sat 12:39:25 AM -35.1208 149.4383 231° Southwest 127 146 15,900  Level Aus ATC (RADAR)
Sat 12:40:10 AM -35.1367 149.4140 231° Southwest 120 138 15,900  Level Aus ATC (RADAR)
Sat 12:40:35 AM -35.1458 149.4007 230° Southwest 121 139 15,900  Level Aus ATC (RADAR)
Sat 12:41:20 AM -35.1612 149.3774 231° Southwest 117 135 15,900  Level Aus ATC (RADAR)
Sat 12:42:10 AM -35.1776 149.3528 231° Southwest 112 129 15,900  Level Aus ATC (RADAR)
Sat 12:42:35 AM -35.1860 149.3396 232° Southwest 116 133 15,900  Level Aus ATC (RADAR)
Sat 12:43:10 AM -35.1990 149.3193 232° Southwest 128 147 15,900  Level Aus ATC (RADAR)
Sat 12:43:55 AM -35.2168 149.2927 231° Southwest 134 154 15,900  Level Aus ATC (RADAR)
Sat 12:44:30 AM -35.2304 149.2724 231° Southwest 133 153 15,900  Level Aus ATC (RADAR)
Sat 12:45:05 AM -35.2442 149.2514 231° Southwest 134 154 15,900  Level Aus ATC (RADAR)
Sat 12:45:40 AM -35.2579 149.2303 231° Southwest 132 152 15,900  Level Aus ATC (RADAR)
Sat 12:46:15 AM -35.2714 149.2099 231° Southwest 130 150 15,900  Level Aus ATC (RADAR)
Sat 12:47:05 AM -35.2896 149.1833 230° Southwest 119 137 15,900  Level Aus ATC (RADAR)
Sat 12:47:30 AM -35.2975 149.1709 232° Southwest 112 129 15,900  Level Aus ATC (RADAR)
Sat 12:48:04 AM -35.3088 149.1540 231° Southwest 108 124 15,900  Level Aus ATC (RADAR)
Sat 12:48:45 AM -35.3221 149.1334 232° Southwest 115 132 15,900  Level Aus ATC (RADAR)
Sat 12:49:24 AM -35.3353 149.1107 234° Southwest 122 140 15,900  Level Aus ATC (RADAR)
Sat 12:49:54 AM -35.3448 149.0911 239° Southwest 129 148 15,900  Level Aus ATC (RADAR)
Sat 12:50:29 AM -35.3577 149.0674 236° Southwest 142 163 15,900  Level Aus ATC (RADAR)
Sat 12:51:04 AM -35.3722 149.0433 234° Southwest 149 171 15,900  Level Aus ATC (RADAR)
Sat 12:51:54 AM -35.3931 149.0082 234° Southwest 152 175 15,900  Level Aus ATC (RADAR)
Sat 12:52:19 AM -35.4034 148.9909 234° Southwest 150 173 15,900  Level Aus ATC (RADAR)
Sat 12:52:44 AM -35.4135 148.9737 234° Southwest 148 170 15,900  Level Aus ATC (RADAR)
Sat 12:53:19 AM -35.4274 148.9507 233° Southwest 143 165 15,900  Level Aus ATC (RADAR)
Sat 12:54:04 AM -35.4443 148.9227 233° Southwest 134 154 15,900  Level Aus ATC (RADAR)
Sat 12:54:34 AM -35.4545 148.9056 234° Southwest 126 145 15,900  Level Aus ATC (RADAR)
Sat 12:55:09 AM -35.4656 148.8864 234° Southwest 119 137 15,900  Level Aus ATC (RADAR)
Sat 12:55:44 AM -35.4775 148.8667 234° Southwest 121 139 15,900  Level Aus ATC (RADAR)
Sat 12:56:19 AM -35.4896 148.8461 234° Southwest 125 144 15,900  Level Aus ATC (RADAR)
Sat 12:57:23 AM -35.5119 148.8091 233° Southwest 122 140 15,900  Level Aus ATC (RADAR)
Sat 12:57:49 AM -35.5202 148.7950 234° Southwest 121 139 15,900  Level Aus ATC (RADAR)
Sat 12:58:23 AM -35.5317 148.7755 234° Southwest 121 139 15,900  Level Aus ATC (RADAR)
Sat 12:59:03 AM -35.5450 148.7525 235° Southwest 123 142 15,900  Level Aus ATC (RADAR)
Sat 12:59:38 AM -35.5573 148.7319 234° Southwest 126 145 15,900  Level Aus ATC (RADAR)
Sat 01:00:13 AM -35.5694 148.7118 234° Southwest 126 145 15,900  Level Aus ATC (RADAR)
Sat 01:00:53 AM -35.5835 148.6874 235° Southwest 130 150 15,900  Level Aus ATC (RADAR)
Sat 01:01:28 AM -35.5961 148.6667 233° Southwest 130 150 15,900  Level Aus ATC (RADAR)
Sat 01:02:18 AM -35.6136 148.6376 233° Southwest 125 144 15,900  Level Aus ATC (RADAR)
Sat 01:02:43 AM -35.6226 148.6223 234° Southwest 130 150 15,900  Level Aus ATC (RADAR)
Sat 01:03:18 AM -35.6347 148.6015 234° Southwest 128 147 15,900  Level Aus ATC (RADAR)
Sat 01:04:03 AM -35.6501 148.5755 234° Southwest 125 144 15,900  Level Aus ATC (RADAR)
Sat 01:04:33 AM -35.6601 148.5581 235° Southwest 125 144 15,900  Level Aus ATC (RADAR)
Sat 01:05:08 AM -35.6719 148.5390 233° Southwest 120 138 15,900  Level Aus ATC (RADAR)
Sat 01:05:48 AM -35.6851 148.5161 234° Southwest 121 139 15,900  Level Aus ATC (RADAR)
Sat 01:06:23 AM -35.6968 148.4966 234° Southwest 121 139 15,900  Level Aus ATC (RADAR)
Sat 01:07:27 AM -35.7191 148.4584 234° Southwest 126 145 15,900  Level Aus ATC (RADAR)
Sat 01:08:02 AM -35.7312 148.4377 234° Southwest 127 146 15,900  Level Aus ATC (RADAR)
Sat 01:08:27 AM -35.7399 148.4227 234° Southwest 128 147 15,900  Level Aus ATC (RADAR)
Sat 01:09:02 AM -35.7523 148.4018 234° Southwest 129 148 15,900  Level Aus ATC (RADAR)
Sat 01:09:37 AM -35.7650 148.3804 234° Southwest 131 151 15,900  Level Aus ATC (RADAR)
Sat 01:10:12 AM -35.7771 148.3579 237° Southwest 133 153 15,900  Level Aus ATC (RADAR)
Sat 01:10:42 AM -35.7885 148.3412 230° Southwest 130 150 15,900  Level Aus ATC (RADAR)
Sat 01:11:22 AM -35.8023 148.3174 234° Southwest 127 146 15,900  Level Aus ATC (RADAR)
Sat 01:11:57 AM -35.8141 148.2969 235° Southwest 124 143 15,900  Level Aus ATC (RADAR)
Sat 01:12:58 AM -35.8345 148.2621 234° Southwest 124 143 15,900  Level Aus ATC (RADAR)
Sat 01:13:17 AM -35.8413 148.2505 234° Southwest 124 143 15,900  Level Aus ATC (RADAR)
Sat 01:13:52 AM -35.8531 148.2298 235° Southwest 125 144 15,900  Level Aus ATC (RADAR)
Sat 01:14:37 AM -35.8686 148.2030 235° Southwest 127 146 15,900  Level Aus ATC (RADAR)
Sat 01:15:07 AM -35.8791 148.1854 234° Southwest 127 146 15,900  Level Aus ATC (RADAR)
Sat 01:16:07 AM -35.9002 148.1495 234° Southwest 128 147 15,900  Level Aus ATC (RADAR)
Sat 01:16:27 AM -35.9070 148.1372 236° Southwest 129 148 15,900  Level Aus ATC (RADAR)
Sat 01:16:56 AM -35.9174 148.1195 234° Southwest 126 145 15,900 71 Level Aus ATC (RADAR)
Sat 01:17:51 AM -35.9368 148.0861 234° Southwest 130 150 16,000 75 Climbing Aus ATC (RADAR)
Sat 01:18:16 AM -35.9457 148.0704 235° Southwest 133 153 16,000  Level Aus ATC (RADAR)
Sat 01:18:56 AM -35.9609 148.0444 234° Southwest 138 159 16,000  Level Aus ATC (RADAR)
Sat 01:19:31 AM -35.9745 148.0213 234° Southwest 142 163 16,000  Level Aus ATC (RADAR)
Sat 01:20:06 AM -35.9885 147.9971 234° Southwest 146 168 16,000  Level Aus ATC (RADAR)
Sat 01:20:56 AM -36.0078 147.9635 235° Southwest 143 165 16,000  Level Aus ATC (RADAR)
Sat 01:21:21 AM -36.0171 147.9475 234° Southwest 137 158 16,000  Level Aus ATC (RADAR)
Sat 01:21:56 AM -36.0298 147.9264 234° Southwest 131 151 16,000  Level Aus ATC (RADAR)
Sat 01:22:51 AM -36.0484 147.8940 234° Southwest 125 144 16,000  Level Aus ATC (RADAR)
Sat 01:23:21 AM -36.0585 147.8762 235° Southwest 125 144 16,000  Level Aus ATC (RADAR)
Sat 01:23:56 AM -36.0704 147.8548 235° Southwest 128 147 16,000  Level Aus ATC (RADAR)
Sat 01:24:41 AM -36.0871 147.8262 234° Southwest 137 158 16,000  Level Aus ATC (RADAR)
Sat 01:25:16 AM -36.1003 147.8031 235° Southwest 138 159 16,000  Level Aus ATC (RADAR)
Sat 01:26:01 AM -36.1169 147.7749 234° Southwest 134 154 16,000  Level Aus ATC (RADAR)
Sat 01:26:26 AM -36.1254 147.7590 236° Southwest 133 153 16,000  Level Aus ATC (RADAR)
Sat 01:27:01 AM -36.1377 147.7375 235° Southwest 131 151 16,000  Level Aus ATC (RADAR)
Sat 01:27:51 AM -36.1559 147.7063 234° Southwest 133 153 16,000  Level Aus ATC (RADAR)
Sat 01:28:15 AM -36.1651 147.6899 235° Southwest 137 158 16,000  Level Aus ATC (RADAR)
Sat 01:28:50 AM -36.1778 147.6676 235° Southwest 136 157 16,000  Level Aus ATC (RADAR)
Sat 01:29:35 AM -36.1948 147.6379 235° Southwest 141 162 16,000  Level Aus ATC (RADAR)
Sat 01:30:10 AM -36.2085 147.6151 233° Southwest 141 162 16,000 -282 Level Aus ATC (RADAR)
Sat 01:31:00 AM -36.2277 147.5811 235° Southwest 145 167 15,600 -462 Descending Aus ATC (RADAR)
Sat 01:31:15 AM -36.2335 147.5702 236° Southwest 149 171 15,500 -480 Descending Aus ATC (RADAR)
Sat 01:31:50 AM -36.2473 147.5468 234° Southwest 145 167 15,200 -525 Descending Aus ATC (RADAR)
Sat 01:32:35 AM -36.2648 147.5177 233° Southwest 140 161 14,800 -375 Descending Aus ATC (RADAR)
Sat 01:33:10 AM -36.2776 147.4939 236° Southwest 140 161 14,700 -86 Descending Aus ATC (RADAR)
Sat 01:33:45 AM -36.2908 147.4713 234° Southwest 139 160 14,700 277 Level Aus ATC (RADAR)
Sat 01:34:15 AM -36.3022 147.4514 235° Southwest 139 160 15,000 1,200 Climbing Aus ATC (RADAR)
Sat 01:34:50 AM -36.3136 147.4323 233° Southwest 115 132 16,000 857 Climbing Aus ATC (RADAR)
Sat 01:35:25 AM -36.3252 147.4118 235° Southwest 125 144 16,000 660 Level Aus ATC (RADAR)
Sat 01:36:30 AM -36.3463 147.3757 234° Southwest 106 122 17,100 975 Climbing Aus ATC (RADAR)
Sat 01:36:45 AM -36.3504 147.3680 237° Southwest 104 120 17,300 720 Climbing Aus ATC (RADAR)
Sat 01:37:20 AM -36.3598 147.3502 236° Southwest 104 120 17,700 500 Climbing Aus ATC (RADAR)
Sat 01:38:09 AM -36.3742 147.3245 235° Southwest 111 128 18,000 214 Climbing Aus ATC (RADAR)
Sat 01:38:44 AM -36.3862 147.3027 236° Southwest 128 147 18,000  Level Aus ATC (RADAR)
Sat 01:39:19 AM -36.3996 147.2793 235° Southwest 143 165 18,000  Level Aus ATC (RADAR)
Sat 01:39:59 AM -36.4154 147.2518 235° Southwest 146 168 18,000  Level Aus ATC (RADAR)
Sat 01:40:34 AM -36.4299 147.2266 235° Southwest 152 175 18,000  Level Aus ATC (RADAR)
Sat 01:41:24 AM -36.4504 147.1905 235° Southwest 153 176 18,000  Level Aus ATC (RADAR)
Sat 01:41:49 AM -36.4602 147.1733 235° Southwest 147 169 18,000  Level Aus ATC (RADAR)
Sat 01:42:24 AM -36.4737 147.1502 234° Southwest 141 162 18,000  Level Aus ATC (RADAR)
Sat 01:43:14 AM -36.4913 147.1196 235° Southwest 130 150 18,000  Level Aus ATC (RADAR)
Sat 01:43:39 AM -36.4999 147.1039 235° Southwest 130 150 18,000  Level Aus ATC (RADAR)
Sat 01:44:19 AM -36.5143 147.0774 236° Southwest 139 160 18,000  Level Aus ATC (RADAR)
Sat 01:44:59 AM -36.5322 147.0517 229° Southwest 147 169 18,000  Level Aus ATC (RADAR)
Sat 01:45:34 AM -36.5480 147.0294 229° Southwest 145 167 18,000  Level Aus ATC (RADAR)
Sat 01:46:09 AM -36.5636 147.0074 229° Southwest 146 168 18,000  Level Aus ATC (RADAR)
Sat 01:46:44 AM -36.5796 146.9849 228° Southwest 147 169 18,000  Level Aus ATC (RADAR)
Sat 01:47:19 AM -36.5952 146.9633 228° Southwest 143 165 18,000  Level Aus ATC (RADAR)
Sat 01:48:24 AM -36.6231 146.9243 228° Southwest 137 158 18,000  Level Aus ATC (RADAR)
Sat 01:48:48 AM -36.6336 146.9095 229° Southwest 138 159 18,000  Level Aus ATC (RADAR)
Sat 01:49:28 AM -36.6506 146.8853 229° Southwest 140 161 18,000  Level Aus ATC (RADAR)
Sat 01:50:08 AM -36.6685 146.8586 230° Southwest 151 174 18,000  Level Aus ATC (RADAR)
Sat 01:50:43 AM -36.6854 146.8354 228° Southwest 155 178 18,000  Level Aus ATC (RADAR)
Sat 01:51:18 AM -36.7012 146.8115 231° Southwest 153 176 18,000  Level Aus ATC (RADAR)
Sat 01:51:53 AM -36.7173 146.7898 227° Southwest 146 168 18,000  Level Aus ATC (RADAR)
Sat 01:52:23 AM -36.7307 146.7718 227° Southwest 142 163 18,000  Level Aus ATC (RADAR)
Sat 01:53:28 AM -36.7579 146.7321 229° Southwest 139 160 18,000  Level Aus ATC (RADAR)
Sat 01:53:53 AM -36.7687 146.7171 228° Southwest 139 160 18,000  Level Aus ATC (RADAR)
Sat 01:54:28 AM -36.7839 146.6957 229° Southwest 141 162 18,000  Level Aus ATC (RADAR)
Sat 01:55:08 AM -36.8017 146.6709 228° Southwest 145 167 18,000  Level Aus ATC (RADAR)
Sat 01:55:43 AM -36.8169 146.6486 230° Southwest 145 167 18,000  Level Aus ATC (RADAR)
Sat 01:56:18 AM -36.8321 146.6262 230° Southwest 145 167 18,000  Level Aus ATC (RADAR)
Sat 01:56:53 AM -36.8479 146.6035 229° Southwest 147 169 18,000  Level Aus ATC (RADAR)
Sat 01:57:28 AM -36.8635 146.5818 228° Southwest 144 166 18,000  Level Aus ATC (RADAR)
Sat 01:58:22 AM -36.8871 146.5484 229° Southwest 140 161 18,000  Level Aus ATC (RADAR)
Sat 01:58:42 AM -36.8957 146.5358 230° Southwest 142 163 18,000  Level Aus ATC (RADAR)
Sat 01:59:17 AM -36.9114 146.5140 228° Southwest 145 167 18,000  Level Aus ATC (RADAR)
Sat 02:00:02 AM -36.9311 146.4847 230° Southwest 146 168 18,000  Level Aus ATC (RADAR)
Sat 02:00:37 AM -36.9469 146.4620 229° Southwest 147 169 18,000  Level Aus ATC (RADAR)
Sat 02:01:12 AM -36.9635 146.4394 228° Southwest 150 173 18,000  Level Aus ATC (RADAR)
Sat 02:01:42 AM -36.9770 146.4196 229° Southwest 151 174 18,000  Level Aus ATC (RADAR)
Sat 02:02:17 AM -36.9931 146.3972 228° Southwest 149 171 18,000  Level Aus ATC (RADAR)
Sat 02:03:12 AM -37.0172 146.3623 229° Southwest 143 165 18,000  Level Aus ATC (RADAR)
Sat 02:03:32 AM -37.0259 146.3496 229° Southwest 143 165 18,000  Level Aus ATC (RADAR)
Sat 02:04:02 AM -37.0396 146.3309 227° Southwest 145 167 18,000  Level Aus ATC (RADAR)
Sat 02:04:37 AM -37.0556 146.3096 227° Southwest 145 167 18,000  Level Aus ATC (RADAR)
Sat 02:05:22 AM -37.0734 146.2809 232° Southwest 140 161 18,000  Level Aus ATC (RADAR)
Sat 02:05:57 AM -37.0893 146.2596 227° Southwest 142 163 18,000  Level Aus ATC (RADAR)
Sat 02:06:32 AM -37.1034 146.2383 230° Southwest 139 160 18,000  Level Aus ATC (RADAR)
Sat 02:07:02 AM -37.1172 146.2198 227° Southwest 143 165 18,000  Level Aus ATC (RADAR)
Sat 02:07:36 AM -37.1316 146.1973 231° Southwest 144 166 18,000  Level Aus ATC (RADAR)
Sat 02:08:36 AM -37.1585 146.1587 229° Southwest 147 169 18,000  Level Aus ATC (RADAR)
Sat 02:09:01 AM -37.1698 146.1431 228° Southwest 145 167 18,000  Level Aus ATC (RADAR)
Sat 02:09:36 AM -37.1846 146.1211 230° Southwest 142 163 18,000 -240 Level Aus ATC (RADAR)
Sat 02:10:16 AM -37.2023 146.0943 230° Southwest 152 175 17,700 -560 Descending Aus ATC (RADAR)
Sat 02:10:51 AM -37.2198 146.0689 229° Southwest 164 189 17,300 -720 Descending Aus ATC (RADAR)
Sat 02:11:31 AM -37.2403 146.0399 228° Southwest 166 191 16,800 -771 Descending Aus ATC (RADAR)
Sat 02:12:01 AM -37.2553 146.0187 228° Southwest 163 188 16,400 -686 Descending Aus ATC (RADAR)
Sat 02:12:41 AM -37.2743 145.9909 229° Southwest 160 184 16,000 -660 Descending Aus ATC (RADAR)
Sat 02:13:41 AM -37.3025 145.9489 230° Southwest 159 183 15,300 -706 Descending Aus ATC (RADAR)
Sat 02:14:06 AM -37.3144 145.9317 229° Southwest 158 182 15,000 -700 Descending Aus ATC (RADAR)
Sat 02:14:41 AM -37.3317 145.9070 229° Southwest 162 186 14,600 -720 Descending Aus ATC (RADAR)
Sat 02:15:21 AM -37.3513 145.8787 229° Southwest 160 184 14,100 -720 Descending Aus ATC (RADAR)
Sat 02:15:56 AM -37.3682 145.8544 229° Southwest 159 183 13,700 -686 Descending Aus ATC (RADAR)
Sat 02:16:31 AM -37.3833 145.8313 230° Southwest 149 171 13,300 -686 Descending Aus ATC (RADAR)
Sat 02:17:06 AM -37.3984 145.8091 229° Southwest 144 166 12,900 -600 Descending Aus ATC (RADAR)
Sat 02:17:41 AM -37.4137 145.7876 228° Southwest 142 163 12,600 -632 Descending Aus ATC (RADAR)
Sat 02:18:41 AM -37.4397 145.7492 229° Southwest 147 169 11,900 -643 Descending Aus ATC (RADAR)
Sat 02:19:05 AM -37.4509 145.7328 229° Southwest 149 171 11,700 -667 Descending Aus ATC (RADAR)
Sat 02:19:35 AM -37.4634 145.7139 230° Southwest 143 165 11,300 -640 Descending Aus ATC (RADAR)
Sat 02:20:20 AM -37.4824 145.6857 230° Southwest 142 163 10,900 -600 Descending Aus ATC (RADAR)
Sat 02:20:55 AM -37.4982 145.6630 229° Southwest 147 169 10,500 -646 Descending Aus ATC (RADAR)
Sat 02:21:25 AM -37.5112 145.6437 230° Southwest 145 167 10,200 -646 Descending Aus ATC (RADAR)
Sat 02:22:00 AM -37.5268 145.6209 229° Southwest 146 168 9,800 -771 Descending Aus ATC (RADAR)
Sat 02:22:35 AM -37.5424 145.5982 229° Southwest 146 168 9,300 -720 Descending Aus ATC (RADAR)
Sat 02:23:15 AM -37.5597 145.5723 230° Southwest 146 168 8,900 -640 Descending Aus ATC (RADAR)
Sat 02:23:50 AM -37.5756 145.5485 230° Southwest 152 175 8,500 -686 Descending Aus ATC (RADAR)
Sat 02:24:25 AM -37.5921 145.5243 229° Southwest 155 178 8,100 -600 Descending Aus ATC (RADAR)
Sat 02:25:00 AM -37.6083 145.5009 229° Southwest 152 175 7,800 -646 Descending Aus ATC (RADAR)
Sat 02:25:30 AM -37.6215 145.4819 229° Southwest 147 169 7,400 -646 Descending Aus ATC (RADAR)
Sat 02:26:05 AM -37.6360 145.4599 230° Southwest 141 162 7,100 -600 Descending Aus ATC (RADAR)
Sat 02:26:40 AM -37.6500 145.4391 230° Southwest 136 157 6,700 -656 Descending Aus ATC (RADAR)
Sat 02:27:09 AM -37.6619 145.4211 230° Southwest 134 154 6,400 -563 Descending Aus ATC (RADAR)
Sat 02:27:44 AM -37.6753 145.4018 229° Southwest 126 145 6,100 -540 Descending Aus ATC (RADAR)
Sat 02:28:49 AM -37.6994 145.3656 230° Southwest 123 142 5,500 -533 Descending Aus ATC (RADAR)
Sat 02:29:14 AM -37.7091 145.3516 229° Southwest 125 144 5,300 -500 Descending Aus ATC (RADAR)
Sat 02:29:49 AM -37.7249 145.3355 219° Southwest 125 144 5,000 -525 Descending Aus ATC (RADAR)
Sat 02:30:34 AM -37.7477 145.3131 218° Southwest 138 159 4,600 -560 Descending Aus ATC (RADAR)
Sat 02:31:04 AM -37.7633 145.2978 218° Southwest 142 163 4,300 -738 Descending Aus ATC (RADAR)
Sat 02:31:39 AM -37.7825 145.2791 217° Southwest 150 173 3,800 -771 Descending Aus ATC (RADAR)
Sat 02:32:14 AM -37.8010 145.2610 218° Southwest 146 168 3,400 -640 Descending Aus ATC (RADAR)
Sat 02:32:54 AM -37.8224 145.2404 217° Southwest 142 163 3,000 -629 Descending Aus ATC (RADAR)
Sat 02:33:59 AM -37.8542 145.2088 218° Southwest 133 153 2,300 -600 Descending Aus ATC (RADAR)
Sat 02:34:24 AM -37.8658 145.1979 216° Southwest 127 146 2,100 -400 Descending Aus ATC (RADAR)
Sat 02:34:59 AM -37.8812 145.1828 218° Southwest 121 139 1,900 -450 Descending Aus ATC (RADAR)
Sat 02:35:44 AM -37.9028 145.1619 217° Southwest 133 153 1,500 -450 Descending Aus ATC (RADAR)
Sat 02:36:19 AM -37.9189 145.1460 218° Southwest 130 150 1,300 -429 Descending Aus ATC (RADAR)
Sat 02:36:54 AM -37.9356 145.1298 217° Southwest 131 151 1,000 -435 Descending Aus ATC (RADAR)
Sat 02:37:28 AM -37.9464 145.1093 236° Southwest 122 140 800 -469 Descending Aus ATC (RADAR)
Sat 02:37:58 AM -37.9570 145.0976 221° Southwest 110 127 500 -600 Descending Aus ATC (RADAR)

Login

Don't have an account? Register now (free) for customized features, flight alerts, and more!